Time;durP1;ratioP1;P1;durP2;ratioP2;P2;SDS_P1;SDS_P2;PMS_P1;PMS_P2;Temp;Humidity;BMP_temperature;BMP_pressure;BME280_temperature;BME280_humidity;BME280_pressure;Samples;Min_cycle;Max_cycle;Signal;HPM_P1;HPM_P2
2023/05/04 00:01:56;;;;;;;7.60;5.90;;;;;;;14.73;59.45;101209.73;111286;1231;72847;-94
2023/05/04 00:04:26;;;;;;;7.70;5.40;;;;;;;14.72;59.46;101204.90;111305;1231;73585;-93
2023/05/04 00:06:58;;;;;;;8.10;5.40;;;;;;;14.71;59.49;101202.33;111045;1238;62821;-94
2023/05/04 00:09:37;;;;;;;7.10;5.30;;;;;;;14.71;59.57;101200.54;111142;1231;61207;-95
2023/05/04 00:12:18;;;;;;;6.70;5.40;;;;;;;14.72;59.64;101195.44;111214;1231;74782;-93
2023/05/04 00:14:45;;;;;;;7.60;5.30;;;;;;;14.72;59.63;101194.74;110930;1231;72603;-94
2023/05/04 00:17:13;;;;;;;8.80;5.70;;;;;;;14.71;59.64;101191.73;111131;1231;71406;-93
2023/05/04 00:19:45;;;;;;;7.50;5.20;;;;;;;14.73;59.71;101190.54;111260;1231;63858;-95
2023/05/04 00:22:14;;;;;;;6.70;5.30;;;;;;;14.75;59.69;101191.94;111188;1231;61233;-95
2023/05/04 00:24:48;;;;;;;7.80;5.00;;;;;;;14.77;59.67;101189.20;111110;1231;74979;-95
2023/05/04 00:27:16;;;;;;;8.70;5.20;;;;;;;14.78;59.64;101189.52;111373;1231;72698;-95
2023/05/04 00:29:47;;;;;;;8.20;5.30;;;;;;;14.76;59.68;101191.45;111014;1231;73740;-94
2023/05/04 00:32:15;;;;;;;7.60;5.20;;;;;;;14.76;59.69;101193.27;111224;1231;61833;-94
2023/05/04 00:34:47;;;;;;;8.50;6.20;;;;;;;14.77;59.71;101194.89;110864;1231;61206;-93
2023/05/04 00:37:16;;;;;;;10.00;6.50;;;;;;;14.80;59.58;101197.10;111114;1231;72749;-94
2023/05/04 00:39:47;;;;;;;7.00;5.60;;;;;;;14.71;59.67;101196.67;111092;1230;72596;-96
2023/05/04 00:42:14;;;;;;;7.30;5.80;;;;;;;14.67;59.81;101194.73;111077;1236;72440;-94
2023/05/04 00:44:43;;;;;;;7.60;5.40;;;;;;;14.65;59.87;101195.43;111304;1237;61759;-95
2023/05/04 00:47:10;;;;;;;8.40;5.60;;;;;;;14.62;59.97;101197.46;111463;1238;59982;-95
2023/05/04 00:49:38;;;;;;;7.60;5.70;;;;;;;14.61;60.11;101196.14;111148;1231;74633;-94
2023/05/04 00:52:05;;;;;;;7.10;5.10;;;;;;;14.58;60.16;101197.04;111154;1232;73936;-95
2023/05/04 00:54:36;;;;;;;8.30;5.70;;;;;;;14.54;60.28;101197.83;111220;1231;72997;-95
2023/05/04 00:57:35;;;;;;;6.60;5.00;;;;;;;14.52;60.40;101197.84;111591;1231;62918;-95
2023/05/04 01:00:57;;;;;;;8.00;5.50;;;;;;;14.46;60.67;101204.75;111347;1231;62318;-94
2023/05/04 01:03:27;;;;;;;6.70;5.60;;;;;;;14.43;60.66;101197.91;111033;1231;74951;-94
2023/05/04 01:06:11;;;;;;;6.90;5.50;;;;;;;14.42;60.83;101203.94;111162;1231;72823;-94
2023/05/04 01:08:57;;;;;;;8.20;6.00;;;;;;;14.40;60.86;101205.21;111240;1231;72501;-94
2023/05/04 01:11:57;;;;;;;8.80;5.80;;;;;;;14.40;60.95;101206.92;111116;1230;62779;-95
2023/05/04 01:14:29;;;;;;;7.90;5.30;;;;;;;14.39;60.96;101208.60;111071;1231;60430;-94
2023/05/04 01:16:58;;;;;;;7.40;5.40;;;;;;;14.37;61.08;101209.98;110988;1231;73795;-94
2023/05/04 01:19:28;;;;;;;6.50;5.20;;;;;;;14.34;61.26;101215.09;111014;1231;73745;-93
2023/05/04 01:21:57;;;;;;;6.60;5.60;;;;;;;14.32;61.37;101218.96;111085;1232;72975;-95
2023/05/04 01:24:26;;;;;;;8.40;6.00;;;;;;;14.30;61.39;101213.52;110997;1231;62586;-95
2023/05/04 01:27:17;;;;;;;8.50;5.80;;;;;;;14.28;61.52;101213.20;111075;1231;60314;-95
2023/05/04 01:30:17;;;;;;;6.40;5.20;;;;;;;14.26;61.69;101201.98;111128;1231;74619;-95
2023/05/04 01:32:45;;;;;;;6.60;5.00;;;;;;;14.23;61.89;101190.88;111174;1231;73054;-94
2023/05/04 01:35:17;;;;;;;6.60;5.20;;;;;;;14.17;61.99;101194.00;111017;1236;72472;-92
2023/05/04 01:37:47;;;;;;;7.50;5.60;;;;;;;14.12;62.15;101204.34;111305;1231;60325;-92
2023/05/04 01:40:16;;;;;;;6.50;5.20;;;;;;;14.10;62.18;101206.27;111261;1231;60026;-92
2023/05/04 01:42:43;;;;;;;7.10;5.90;;;;;;;14.11;62.21;101199.61;111195;1231;74474;-94
2023/05/04 01:45:12;;;;;;;6.80;5.30;;;;;;;14.06;62.32;101202.67;111058;1230;73415;-91
2023/05/04 01:47:41;;;;;;;7.80;5.80;;;;;;;14.02;62.36;101205.48;111296;1231;73628;-94
2023/05/04 01:50:10;;;;;;;8.10;6.00;;;;;;;14.01;62.53;101206.58;111313;1231;63092;-91
2023/05/04 01:52:37;;;;;;;7.40;6.10;;;;;;;14.01;62.56;101205.66;111413;1231;59355;-93
2023/05/04 01:55:05;;;;;;;6.30;5.60;;;;;;;13.99;62.68;101204.90;111374;1231;72851;-92
2023/05/04 01:57:33;;;;;;;7.70;5.90;;;;;;;13.98;62.69;101203.81;111260;1231;72668;-92
2023/05/04 02:00:01;;;;;;;8.40;5.80;;;;;;;13.96;62.72;101202.96;111359;1231;72700;-92
2023/05/04 02:02:42;;;;;;;6.90;5.60;;;;;;;13.94;62.79;101196.66;111299;1231;60994;-93
2023/05/04 02:05:09;;;;;;;7.50;6.20;;;;;;;13.89;62.91;101193.69;111551;1231;60359;-93
2023/05/04 02:07:36;;;;;;;7.90;5.90;;;;;;;13.86;63.02;101195.83;111458;1231;74924;-93
2023/05/04 02:10:04;;;;;;;7.60;6.00;;;;;;;13.82;63.35;101200.65;111371;1231;72841;-94
2023/05/04 02:12:31;;;;;;;8.30;6.00;;;;;;;13.79;63.48;101190.96;111267;1231;73043;-93
2023/05/04 02:14:58;;;;;;;9.40;5.50;;;;;;;13.76;63.65;101188.00;111418;1231;60919;-93
2023/05/04 02:17:25;;;;;;;8.50;5.00;;;;;;;13.75;63.73;101185.48;111497;1231;60138;-95
2023/05/04 02:19:52;;;;;;;6.70;5.50;;;;;;;13.68;64.02;101181.21;111258;1230;73660;-94
2023/05/04 02:22:20;;;;;;;6.20;5.30;;;;;;;13.68;64.15;101184.59;111527;1231;73689;-94
2023/05/04 02:24:47;;;;;;;6.50;5.20;;;;;;;13.61;64.40;101182.89;111451;1231;71830;-93
2023/05/04 02:27:15;;;;;;;7.60;5.90;;;;;;;13.59;64.42;101182.80;111260;1230;62254;-90
2023/05/04 02:29:45;;;;;;;6.60;5.80;;;;;;;13.61;64.61;101188.64;110994;1231;60423;-93
2023/05/04 02:32:12;;;;;;;7.20;5.20;;;;;;;13.64;64.68;101192.99;111000;1231;73555;-93
2023/05/04 02:34:39;;;;;;;7.60;5.60;;;;;;;13.65;64.54;101192.20;111094;1231;71463;-94
2023/05/04 02:37:06;;;;;;;7.40;5.80;;;;;;;13.66;64.64;101190.60;111061;1230;72674;-92
2023/05/04 02:39:35;;;;;;;8.00;5.60;;;;;;;13.67;64.72;101187.22;111400;1230;61237;-93
2023/05/04 02:42:02;;;;;;;6.80;4.90;;;;;;;13.68;64.76;101189.42;111253;1232;61403;-93
2023/05/04 02:44:30;;;;;;;8.10;5.60;;;;;;;13.70;64.79;101192.54;111228;1231;73282;-94
2023/05/04 02:46:57;;;;;;;6.40;5.00;;;;;;;13.71;64.71;101197.11;111125;1231;71985;-94
2023/05/04 02:49:26;;;;;;;6.60;5.40;;;;;;;13.71;64.73;101203.73;110963;1231;72370;-92
2023/05/04 02:51:53;;;;;;;6.90;5.90;;;;;;;13.68;64.77;101203.44;110875;1232;61811;-93
2023/05/04 02:54:21;;;;;;;7.40;5.40;;;;;;;13.69;64.72;101194.90;111290;1231;60471;-92
2023/05/04 02:56:48;;;;;;;8.10;5.10;;;;;;;13.67;64.84;101186.46;111104;1237;71732;-94
2023/05/04 02:59:15;;;;;;;7.20;5.40;;;;;;;13.65;64.86;101183.61;111171;1231;72130;-93
2023/05/04 03:01:44;;;;;;;8.00;5.50;;;;;;;13.66;64.97;101179.32;111460;1231;73023;-93
2023/05/04 03:04:11;;;;;;;7.90;5.90;;;;;;;13.67;64.99;101176.00;111561;1231;61317;-93
2023/05/04 03:06:41;;;;;;;9.10;5.60;;;;;;;13.65;65.17;101175.44;111427;1231;60092;-94
2023/05/04 03:09:11;;;;;;;8.20;5.70;;;;;;;13.63;65.26;101179.67;111543;1230;74438;-94
2023/05/04 03:11:41;;;;;;;7.00;5.10;;;;;;;13.65;65.37;101179.00;111166;1231;72366;-94
2023/05/04 03:14:08;;;;;;;8.00;5.60;;;;;;;13.67;65.45;101178.79;111065;1231;73496;-95
2023/05/04 03:16:38;;;;;;;7.70;5.50;;;;;;;13.71;65.57;101185.41;111121;1230;60826;-93
2023/05/04 03:19:06;;;;;;;7.70;5.10;;;;;;;13.76;65.57;101190.95;111057;1231;60980;-94
2023/05/04 03:21:41;;;;;;;8.80;5.40;;;;;;;13.80;65.49;101190.27;111087;1231;74829;-94
2023/05/04 03:24:11;;;;;;;5.80;5.20;;;;;;;13.85;65.51;101184.49;111247;1231;73523;-92
2023/05/04 03:26:39;;;;;;;8.00;5.50;;;;;;;13.93;65.50;101189.84;111114;1231;72667;-92
2023/05/04 03:29:07;;;;;;;6.70;5.60;;;;;;;13.99;65.37;101192.49;111100;1232;62111;-92
2023/05/04 03:31:36;;;;;;;6.20;5.00;;;;;;;14.05;65.30;101186.92;110965;1231;60007;-92
2023/05/04 03:34:03;;;;;;;7.70;5.30;;;;;;;14.08;65.16;101180.73;111163;1237;74791;-92
2023/05/04 03:36:31;;;;;;;7.40;5.70;;;;;;;14.09;65.16;101177.74;111207;1231;72403;-92
2023/05/04 03:38:58;;;;;;;8.90;5.60;;;;;;;14.10;65.08;101183.33;111134;1232;72379;-92
2023/05/04 03:41:29;;;;;;;6.50;5.40;;;;;;;14.13;65.06;101181.31;111002;1232;62846;-93
2023/05/04 03:43:59;;;;;;;5.80;5.20;;;;;;;14.14;64.99;101181.79;111075;1237;60388;-93
2023/05/04 03:46:30;;;;;;;6.20;5.50;;;;;;;14.16;64.85;101179.16;111171;1231;73825;-92
2023/05/04 03:48:59;;;;;;;6.90;5.50;;;;;;;14.16;64.83;101173.58;111267;1231;72036;-93
2023/05/04 03:51:30;;;;;;;6.20;5.20;;;;;;;14.14;64.76;101173.02;111268;1231;72460;-93
2023/05/04 03:53:58;;;;;;;6.90;5.10;;;;;;;14.14;64.74;101177.34;111096;1231;63112;-91
2023/05/04 03:56:25;;;;;;;6.70;5.50;;;;;;;14.17;64.72;101176.20;110861;1231;60349;-93
2023/05/04 03:58:52;;;;;;;7.10;5.80;;;;;;;14.20;64.71;101177.20;111216;1232;73782;-92
2023/05/04 04:01:23;;;;;;;7.10;5.10;;;;;;;14.26;64.58;101181.76;111347;1231;74028;-92
2023/05/04 04:03:50;;;;;;;7.30;5.90;;;;;;;14.29;64.61;101188.69;110856;1238;73625;-93
2023/05/04 04:06:19;;;;;;;7.60;5.60;;;;;;;14.31;64.85;101193.91;110907;1232;61353;-93
2023/05/04 04:08:46;;;;;;;7.30;5.60;;;;;;;14.40;64.80;101194.09;111227;1232;60204;-90
2023/05/04 04:11:14;;;;;;;6.80;5.30;;;;;;;14.47;64.82;101190.45;111347;1231;73527;-92
2023/05/04 04:13:41;;;;;;;6.80;5.70;;;;;;;14.56;64.72;101188.33;111323;1234;72541;-89
2023/05/04 04:16:09;;;;;;;7.10;5.50;;;;;;;14.66;64.46;101190.16;111500;1231;73379;-93
2023/05/04 04:18:36;;;;;;;7.20;5.70;;;;;;;14.78;64.21;101191.40;111566;1231;61642;-92
2023/05/04 04:21:03;;;;;;;8.80;6.00;;;;;;;14.84;63.88;101195.55;111519;1232;61413;-94
2023/05/04 04:23:34;;;;;;;7.00;5.70;;;;;;;14.90;63.70;101193.92;111015;1232;73630;-92
2023/05/04 04:26:04;;;;;;;6.60;5.90;;;;;;;14.96;63.64;101199.04;111190;1231;71310;-92
2023/05/04 04:28:33;;;;;;;8.40;6.60;;;;;;;15.06;63.48;101198.05;111004;1232;72884;-93
2023/05/04 04:31:03;;;;;;;7.40;6.00;;;;;;;15.18;63.22;101194.54;111267;1231;61634;-92
2023/05/04 04:33:34;;;;;;;8.30;6.00;;;;;;;15.33;63.02;101193.48;111007;1231;60904;-94
2023/05/04 04:36:03;;;;;;;7.10;6.30;;;;;;;15.47;62.79;101201.63;111044;1231;73588;-92
2023/05/04 04:38:36;;;;;;;6.90;5.90;;;;;;;15.62;62.27;101205.19;111288;1231;73573;-92
2023/05/04 04:41:04;;;;;;;7.50;5.80;;;;;;;15.72;61.97;101206.86;111174;1237;72505;-92
2023/05/04 04:43:32;;;;;;;8.70;6.10;;;;;;;15.81;61.61;101211.72;111063;1232;62043;-94
2023/05/04 04:46:02;;;;;;;8.30;6.20;;;;;;;15.90;61.23;101210.98;111009;1232;61263;-92
2023/05/04 04:48:30;;;;;;;9.10;6.20;;;;;;;15.96;60.73;101207.88;111137;1232;74954;-92
2023/05/04 04:50:58;;;;;;;8.60;6.00;;;;;;;15.99;60.32;101207.48;111298;1237;73608;-93
2023/05/04 04:53:26;;;;;;;7.30;5.60;;;;;;;16.02;59.86;101207.25;111197;1231;71299;-92
2023/05/04 04:56:01;;;;;;;7.20;5.90;;;;;;;16.05;59.30;101209.56;111369;1230;62283;-93
2023/05/04 04:58:33;;;;;;;8.80;6.30;;;;;;;16.03;59.18;101210.55;111411;1230;60272;-94
2023/05/04 05:01:08;;;;;;;7.10;6.10;;;;;;;15.97;59.55;101214.51;111528;1231;72703;-93
2023/05/04 05:03:35;;;;;;;7.60;5.30;;;;;;;16.03;59.90;101208.48;111239;1232;73965;-93
2023/05/04 05:06:03;;;;;;;8.00;5.80;;;;;;;16.17;59.64;101213.11;111157;1232;73771;-92
2023/05/04 05:08:33;;;;;;;7.40;5.40;;;;;;;16.30;59.20;101215.04;111100;1233;62011;-92
2023/05/04 05:11:32;;;;;;;9.80;5.80;;;;;;;16.41;59.04;101218.91;111597;1232;58970;-94
2023/05/04 05:14:18;;;;;;;9.50;6.00;;;;;;;16.63;58.58;101223.92;109744;1237;2460448;-94
2023/05/04 05:17:11;;;;;;;7.60;5.30;;;;;;;16.66;58.37;101224.87;111649;1237;72526;-91
2023/05/04 05:20:43;;;;;;;7.60;5.50;;;;;;;16.72;58.02;101221.27;111534;1231;73577;-94
2023/05/04 05:23:50;;;;;;;6.50;5.10;;;;;;;16.82;57.69;101226.72;111337;1237;58815;-93
2023/05/04 05:26:17;;;;;;;7.10;5.50;;;;;;;16.85;57.56;101220.33;110934;1235;60382;-91
2023/05/04 05:28:44;;;;;;;7.70;5.50;;;;;;;16.86;57.29;101215.20;110979;1237;73218;-92
2023/05/04 05:31:11;;;;;;;7.30;5.90;;;;;;;16.88;56.91;101215.48;110998;1235;71398;-92
2023/05/04 05:33:43;;;;;;;8.20;5.60;;;;;;;16.92;56.68;101210.22;110785;1235;73860;-91
2023/05/04 05:36:13;;;;;;;8.10;5.60;;;;;;;16.99;56.56;101211.04;111056;1236;62992;-95
2023/05/04 05:38:43;;;;;;;8.60;5.70;;;;;;;17.06;56.49;101214.84;110671;1241;60318;-92
2023/05/04 05:41:14;;;;;;;10.30;6.30;;;;;;;17.16;56.39;101217.41;110685;1240;74665;-93
2023/05/04 05:43:41;;;;;;;6.50;5.40;;;;;;;17.28;56.21;101222.52;110735;1235;72533;-91
2023/05/04 05:46:11;;;;;;;7.70;5.80;;;;;;;17.40;56.02;101218.46;110557;1236;73517;-92
2023/05/04 05:48:38;;;;;;;7.70;6.00;;;;;;;17.53;55.80;101213.29;110707;1235;60291;-91
2023/05/04 05:51:06;;;;;;;8.00;5.70;;;;;;;17.65;55.33;101208.62;110757;1241;61283;-93
2023/05/04 05:53:38;;;;;;;7.10;5.30;;;;;;;17.75;54.86;101205.98;110699;1240;73845;-92
2023/05/04 05:56:07;;;;;;;6.80;5.70;;;;;;;17.82;54.56;101204.44;110490;1235;71927;-92
2023/05/04 05:58:35;;;;;;;9.70;6.10;;;;;;;17.88;54.32;101204.95;110656;1235;73532;-92
2023/05/04 06:01:03;;;;;;;8.50;6.20;;;;;;;17.86;53.91;101197.26;110960;1240;60514;-92
2023/05/04 06:03:37;;;;;;;7.30;6.10;;;;;;;17.89;54.06;101198.46;110756;1235;60935;-94
2023/05/04 06:06:06;;;;;;;7.00;6.00;;;;;;;18.04;54.05;101194.44;110810;1235;72564;-91
2023/05/04 06:08:33;;;;;;;7.20;5.90;;;;;;;18.21;53.87;101197.11;111231;1231;72650;-93
2023/05/04 06:11:01;;;;;;;7.70;6.10;;;;;;;18.40;53.36;101193.16;111104;1232;73498;-92
2023/05/04 06:13:31;;;;;;;9.70;6.30;;;;;;;18.53;52.84;101194.95;111101;1231;62828;-91
2023/05/04 06:15:58;;;;;;;8.10;6.10;;;;;;;18.64;52.54;101193.84;111034;1231;60222;-93
2023/05/04 06:18:25;;;;;;;7.60;6.00;;;;;;;18.79;52.42;101185.36;111366;1236;74436;-92
2023/05/04 06:20:59;;;;;;;9.50;6.30;;;;;;;18.92;51.99;101182.15;111107;1232;73905;-93
2023/05/04 06:23:28;;;;;;;7.80;6.20;;;;;;;19.02;51.57;101181.55;111257;1230;72717;-93
2023/05/04 06:25:57;;;;;;;8.20;6.30;;;;;;;19.07;51.09;101176.10;111075;1232;60137;-93
2023/05/04 06:28:25;;;;;;;9.70;6.20;;;;;;;19.08;50.79;101174.50;111453;1231;60894;-94
2023/05/04 06:30:55;;;;;;;7.20;6.00;;;;;;;19.12;50.62;101171.90;111326;1232;72841;-93
2023/05/04 06:33:22;;;;;;;9.30;6.40;;;;;;;19.15;50.52;101167.71;111497;1232;71567;-91
2023/05/04 06:35:55;;;;;;;7.80;6.30;;;;;;;19.25;50.40;101170.23;111375;1232;72864;-94
2023/05/04 06:38:23;;;;;;;8.20;6.90;;;;;;;19.27;50.09;101171.67;111113;1232;60453;-93
2023/05/04 06:40:57;;;;;;;8.60;5.90;;;;;;;19.23;50.02;101169.08;111061;1232;60141;-91
2023/05/04 06:43:26;;;;;;;7.30;6.50;;;;;;;19.23;50.15;101166.43;111225;1232;74845;-92
2023/05/04 06:46:00;;;;;;;7.70;6.00;;;;;;;19.20;50.24;101164.80;111488;1232;72516;-90
2023/05/04 06:48:32;;;;;;;8.70;6.30;;;;;;;19.23;50.36;101158.08;111536;1232;71135;-93
2023/05/04 06:50:58;;;;;;;7.60;6.10;;;;;;;19.34;50.45;101157.32;111361;1232;61318;-92
2023/05/04 06:53:30;;;;;;;10.50;6.30;;;;;;;19.38;50.13;101158.27;111688;1232;60308;-93
2023/05/04 06:55:57;;;;;;;9.30;6.60;;;;;;;19.48;50.16;101159.17;111557;1231;75391;-95
2023/05/04 06:58:25;;;;;;;11.00;6.10;;;;;;;19.61;50.07;101154.09;111525;1232;72107;-93
2023/05/04 07:00:52;;;;;;;8.10;6.50;;;;;;;19.73;49.85;101158.48;111521;1232;71703;-92
2023/05/04 07:03:20;;;;;;;9.00;6.10;;;;;;;19.81;49.66;101159.09;111694;1232;61330;-95
2023/05/04 07:05:52;;;;;;;7.70;6.50;;;;;;;19.97;49.45;101164.40;111237;1236;60270;-92
2023/05/04 07:08:28;;;;;;;8.70;6.50;;;;;;;20.12;48.76;101161.61;111036;1232;73696;-93
2023/05/04 07:10:56;;;;;;;8.10;6.00;;;;;;;20.26;48.61;101162.54;111199;1230;71305;-91
2023/05/04 07:13:25;;;;;;;6.70;6.00;;;;;;;20.44;48.43;101164.61;111243;1233;72566;-91
2023/05/04 07:15:56;;;;;;;6.20;5.30;;;;;;;20.61;47.92;101162.80;111369;1237;60353;-92
2023/05/04 07:18:23;;;;;;;8.60;6.40;;;;;;;20.70;47.13;101168.18;111276;1232;60065;-92
2023/05/04 07:21:08;;;;;;;9.80;6.90;;;;;;;20.66;46.57;101170.55;111420;1230;73686;-93
2023/05/04 07:23:56;;;;;;;7.50;6.50;;;;;;;20.57;46.65;101172.23;111432;1234;72709;-93
2023/05/04 07:26:25;;;;;;;8.90;6.30;;;;;;;20.56;46.78;101174.76;111224;1231;73083;-92
2023/05/04 07:28:54;;;;;;;11.10;6.70;;;;;;;20.64;46.71;101173.15;111302;1231;60334;-93
2023/05/04 07:31:21;;;;;;;8.00;6.20;;;;;;;20.74;46.49;101170.46;111837;1231;60130;-91
2023/05/04 07:33:48;;;;;;;6.70;5.70;;;;;;;20.89;46.16;101167.98;112430;1232;73634;-85
2023/05/04 07:36:19;;;;;;;7.60;6.10;;;;;;;21.03;46.15;101168.99;112119;1231;72212;-87
2023/05/04 07:39:02;;;;;;;7.60;6.40;;;;;;;21.24;46.24;101166.05;112307;1230;71703;-86
2023/05/04 07:41:37;;;;;;;9.10;6.20;;;;;;;21.47;45.99;101160.85;112339;1232;59997;-93
2023/05/04 07:44:07;;;;;;;;;;;;;;;21.72;45.67;101165.20;112457;1230;59241;-92
2023/05/04 07:46:35;;;;;;;8.70;6.30;;;;;;;21.90;44.98;101168.27;112405;1237;72286;-94
2023/05/04 07:49:05;;;;;;;7.00;6.00;;;;;;;22.00;45.06;101168.11;111971;1231;72640;-92
2023/05/04 07:51:32;;;;;;;10.20;6.50;;;;;;;22.19;44.68;101166.83;112194;1231;71234;-91
2023/05/04 07:53:59;;;;;;;8.20;6.40;;;;;;;22.28;43.62;101159.59;111638;1234;60511;-92
2023/05/04 07:56:27;;;;;;;7.80;6.10;;;;;;;22.17;43.36;101169.93;111798;1231;59593;-94
2023/05/04 07:58:54;;;;;;;8.60;5.80;;;;;;;21.99;43.45;101171.95;112009;1234;71852;-91
2023/05/04 08:01:21;;;;;;;7.40;6.20;;;;;;;21.77;43.92;101172.23;112075;1230;72501;-87
2023/05/04 08:03:51;;;;;;;8.80;7.10;;;;;;;21.67;44.13;101170.50;111865;1231;72517;-92
2023/05/04 08:06:25;;;;;;;8.80;6.10;;;;;;;21.44;43.81;101169.00;111505;1231;60351;-93
2023/05/04 08:08:55;;;;;;;8.70;6.70;;;;;;;21.34;44.71;101166.48;111640;1231;60302;-94
2023/05/04 08:11:41;;;;;;;9.60;7.00;;;;;;;21.55;44.93;101164.55;111168;1232;73795;-90
2023/05/04 08:14:08;;;;;;;9.00;6.80;;;;;;;21.80;44.51;101166.00;111599;1231;70627;-94
2023/05/04 08:16:38;;;;;;;8.40;6.70;;;;;;;22.00;44.22;101165.45;112018;1231;72853;-92
2023/05/04 08:19:05;;;;;;;8.00;6.40;;;;;;;22.26;43.80;101159.94;111819;1231;59248;-93
2023/05/04 08:21:32;;;;;;;8.70;6.30;;;;;;;22.41;43.30;101150.61;111740;1231;60269;-94
2023/05/04 08:24:02;;;;;;;8.40;6.10;;;;;;;22.51;43.20;101153.50;111586;1231;72201;-91
2023/05/04 08:26:31;;;;;;;12.00;6.40;;;;;;;22.64;42.73;101156.11;111370;1232;72485;-93
2023/05/04 08:29:06;;;;;;;10.10;7.40;;;;;;;22.60;42.30;101152.60;111112;1231;72540;-91
2023/05/04 08:31:48;;;;;;;13.70;7.70;;;;;;;22.46;42.39;101148.33;111187;1232;60442;-91
2023/05/04 08:34:16;;;;;;;11.30;7.00;;;;;;;22.41;42.75;101150.94;111172;1231;61334;-94
2023/05/04 08:36:49;;;;;;;10.90;6.60;;;;;;;22.46;42.63;101151.91;111150;1231;74821;-95
2023/05/04 08:39:17;;;;;;;8.50;6.70;;;;;;;22.60;42.90;101148.30;111246;1230;72921;-94
2023/05/04 08:41:49;;;;;;;7.10;6.30;;;;;;;22.77;42.47;101146.98;111229;1231;72388;-92
2023/05/04 08:44:20;;;;;;;13.40;7.20;;;;;;;22.93;42.18;101144.48;111223;1231;59148;-93
2023/05/04 08:46:51;;;;;;;11.80;7.70;;;;;;;22.96;41.40;101141.98;111020;1232;60346;-92
2023/05/04 08:49:26;;;;;;;8.90;7.30;;;;;;;22.92;41.16;101137.21;111095;1231;73482;-93
2023/05/04 08:51:58;;;;;;;8.70;7.50;;;;;;;22.83;41.17;101141.04;110916;1232;72502;-91
2023/05/04 08:54:29;;;;;;;9.50;6.10;;;;;;;22.90;41.12;101142.17;111202;1230;72367;-92
2023/05/04 08:57:03;;;;;;;9.10;6.10;;;;;;;22.99;40.89;101139.15;111284;1232;61306;-95
2023/05/04 09:00:10;;;;;;;7.50;5.80;;;;;;;23.11;40.83;101140.67;111730;1230;61023;-93
2023/05/04 09:02:47;;;;;;;7.60;5.90;;;;;;;23.26;40.63;101148.55;111503;1231;74743;-92
2023/05/04 09:05:16;;;;;;;9.20;5.90;;;;;;;23.36;40.53;101145.45;111142;1231;72611;-93
2023/05/04 09:07:47;;;;;;;7.80;4.90;;;;;;;23.46;39.92;101144.15;110928;1231;72510;-92
2023/05/04 09:10:14;;;;;;;8.90;5.70;;;;;;;23.50;39.38;101144.52;111038;1232;60248;-92
2023/05/04 09:12:43;;;;;;;7.60;5.40;;;;;;;23.50;39.08;101140.86;111217;1232;60251;-93
2023/05/04 09:15:21;;;;;;;8.60;5.30;;;;;;;23.52;38.34;101139.39;111313;1232;74966;-93
2023/05/04 09:18:09;;;;;;;6.90;5.00;;;;;;;23.49;37.60;101142.41;111068;1231;71385;-93
2023/05/04 09:20:45;;;;;;;6.30;4.80;;;;;;;23.35;37.47;101140.48;111141;1230;73587;-93
2023/05/04 09:23:15;;;;;;;7.70;5.00;;;;;;;23.36;37.71;101135.13;111224;1232;60560;-91
2023/05/04 09:25:47;;;;;;;8.70;5.20;;;;;;;23.51;37.64;101132.29;111142;1231;60298;-93
2023/05/04 09:28:15;;;;;;;9.80;5.60;;;;;;;23.58;37.40;101136.34;111176;1230;75143;-93
2023/05/04 09:30:59;;;;;;;9.80;5.40;;;;;;;23.62;37.68;101134.39;111382;1231;72392;-95
2023/05/04 09:33:37;;;;;;;7.10;5.00;;;;;;;23.78;37.67;101131.30;111299;1230;73741;-94
2023/05/04 09:36:26;;;;;;;7.90;4.90;;;;;;;23.92;37.41;101128.71;111426;1230;60431;-93
2023/05/04 09:38:54;;;;;;;8.90;5.20;;;;;;;24.07;37.26;101129.08;111434;1232;60512;-92
2023/05/04 09:41:31;;;;;;;8.30;5.10;;;;;;;24.17;37.30;101128.96;111456;1232;72943;-92
2023/05/04 09:43:58;;;;;;;6.70;4.70;;;;;;;24.31;37.08;101126.04;111436;1232;72507;-93
2023/05/04 09:46:26;;;;;;;8.60;5.00;;;;;;;24.42;36.75;101119.91;111588;1231;72416;-93
2023/05/04 09:48:55;;;;;;;26.40;7.60;;;;;;;24.54;36.72;101119.17;111611;1232;60298;-94
2023/05/04 09:51:25;;;;;;;7.50;5.20;;;;;;;24.67;36.44;101114.81;111854;1231;59334;-92
2023/05/04 09:53:52;;;;;;;7.70;5.30;;;;;;;24.76;36.49;101113.59;111548;1232;72442;-91
2023/05/04 09:56:46;;;;;;;6.50;4.70;;;;;;;24.90;36.56;101107.39;111520;1232;72906;-92
2023/05/04 09:59:13;;;;;;;8.10;5.30;;;;;;;25.02;36.02;101108.10;111689;1230;73629;-94
2023/05/04 10:01:42;;;;;;;6.30;4.60;;;;;;;25.09;35.85;101106.38;111650;1231;60311;-94
2023/05/04 10:04:11;;;;;;;6.90;5.20;;;;;;;25.11;35.89;101102.47;111758;1231;60484;-94
2023/05/04 10:06:42;;;;;;;9.00;5.60;;;;;;;25.13;35.81;101104.34;111485;1231;72711;-93
2023/05/04 10:09:09;;;;;;;7.70;5.00;;;;;;;25.16;35.59;101098.36;111849;1231;70762;-95
2023/05/04 10:11:41;;;;;;;7.00;4.80;;;;;;;25.20;35.01;101094.86;111893;1232;70542;-94
2023/05/04 10:14:12;;;;;;;9.20;5.70;;;;;;;25.25;35.12;101092.60;112033;1230;60308;-93
2023/05/04 10:17:05;;;;;;;7.90;4.60;;;;;;;25.41;34.96;101090.36;111948;1230;60999;-90
2023/05/04 10:20:31;;;;;;;6.10;4.70;;;;;;;25.54;34.03;101084.88;111531;1231;73718;-92
2023/05/04 10:23:19;;;;;;;7.90;4.40;;;;;;;25.56;33.75;101083.60;111102;1232;72037;-92
2023/05/04 10:26:44;;;;;;;7.10;4.30;;;;;;;25.63;33.81;101086.08;111313;1232;72576;-91
2023/05/04 10:29:21;;;;;;;7.70;4.90;;;;;;;25.86;33.51;101082.23;110472;1240;60325;-92
2023/05/04 10:31:50;;;;;;;7.50;4.40;;;;;;;26.01;33.54;101076.72;110917;1232;61323;-92
2023/05/04 10:34:34;;;;;;;22.20;7.30;;;;;;;26.14;33.21;101074.25;111051;1231;73307;-92
2023/05/04 10:37:03;;;;;;;8.90;5.10;;;;;;;26.13;32.60;101071.55;111054;1230;73180;-93
2023/05/04 10:39:32;;;;;;;8.70;4.90;;;;;;;25.95;33.01;101068.65;111495;1237;72452;-92
2023/05/04 10:42:06;;;;;;;7.10;4.30;;;;;;;25.89;32.76;101067.33;111220;1230;61305;-91
2023/05/04 10:44:36;;;;;;;8.90;4.50;;;;;;;25.88;32.85;101065.90;111125;1232;59256;-90
2023/05/04 10:47:06;;;;;;;5.60;3.90;;;;;;;26.04;32.74;101068.04;111147;1230;74780;-93
2023/05/04 10:49:37;;;;;;;6.70;3.70;;;;;;;26.25;31.78;101062.97;111133;1238;72717;-94
2023/05/04 10:52:16;;;;;;;6.40;3.90;;;;;;;26.45;31.33;101063.20;111232;1232;73490;-93
2023/05/04 10:54:45;;;;;;;5.60;3.80;;;;;;;26.63;30.95;101061.46;111078;1231;60420;-92
2023/05/04 10:57:15;;;;;;;5.00;3.20;;;;;;;26.83;31.62;101059.36;111159;1231;61373;-91
2023/05/04 10:59:54;;;;;;;6.40;3.80;;;;;;;27.08;31.07;101056.67;111026;1231;74119;-90
2023/05/04 11:02:25;;;;;;;6.90;4.00;;;;;;;27.33;29.72;101061.48;110926;1232;73894;-93
2023/05/04 11:05:08;;;;;;;5.60;3.80;;;;;;;27.39;28.99;101055.88;111194;1231;72445;-92
2023/05/04 11:07:37;;;;;;;6.00;3.40;;;;;;;27.31;28.78;101051.80;110950;1231;60440;-91
2023/05/04 11:10:29;;;;;;;5.80;3.80;;;;;;;27.29;28.71;101051.44;111426;1231;60337;-90
2023/05/04 11:13:11;;;;;;;9.50;3.70;;;;;;;27.32;28.78;101045.55;111813;1234;72701;-92
2023/05/04 11:15:45;;;;;;;8.20;3.40;;;;;;;27.27;28.50;101041.21;111317;1231;72204;-91
2023/05/04 11:18:13;;;;;;;6.60;3.60;;;;;;;27.26;28.21;101038.20;111421;1230;71848;-90
2023/05/04 11:20:41;;;;;;;10.00;4.50;;;;;;;27.20;28.25;101037.52;111635;1231;60520;-93
2023/05/04 11:23:09;;;;;;;8.50;4.40;;;;;;;27.07;28.53;101032.98;111384;1231;61246;-91
2023/05/04 11:25:38;;;;;;;8.10;4.10;;;;;;;26.96;28.62;101030.75;111518;1234;74584;-91
2023/05/04 11:28:07;;;;;;;5.50;3.90;;;;;;;26.86;28.72;101028.04;111185;1231;73385;-93
2023/05/04 11:30:40;;;;;;;5.00;3.70;;;;;;;26.84;28.99;101024.30;111196;1231;73647;-92
2023/05/04 11:33:12;;;;;;;;;;;;;;;26.82;28.56;101019.96;111007;1231;61212;-93
2023/05/04 11:35:41;;;;;;;5.50;3.30;;;;;;;26.85;28.52;101011.23;111251;1231;59955;-92
2023/05/04 11:38:09;;;;;;;6.80;3.40;;;;;;;26.95;27.96;101003.16;111133;1231;74851;-92
2023/05/04 11:40:39;;;;;;;8.10;3.70;;;;;;;27.05;27.74;101002.47;111121;1231;72347;-91